sensor_id;sensor_type;location;lat;lon;timestamp;pressure;altitude;pressure_sealevel;temperature;humidity
21129;BME280;10722;51.910;8.352;2023-09-12T00:00:05;100489.94;;;21.12;97.06
21129;BME280;10722;51.910;8.352;2023-09-12T00:02:50;100495.13;;;21.15;98.37
21129;BME280;10722;51.910;8.352;2023-09-12T00:05:35;100484.53;;;21.18;98.69
21129;BME280;10722;51.910;8.352;2023-09-12T00:08:21;100476.72;;;21.15;97.69
21129;BME280;10722;51.910;8.352;2023-09-12T00:11:08;100473.25;;;21.13;97.78
21129;BME280;10722;51.910;8.352;2023-09-12T00:13:53;100462.53;;;21.20;97.10
21129;BME280;10722;51.910;8.352;2023-09-12T00:16:38;100460.44;;;21.02;96.11
21129;BME280;10722;51.910;8.352;2023-09-12T00:19:23;100466.53;;;21.02;96.62
21129;BME280;10722;51.910;8.352;2023-09-12T00:22:08;100469.38;;;20.96;96.66
21129;BME280;10722;51.910;8.352;2023-09-12T00:24:53;100473.78;;;20.94;97.81
21129;BME280;10722;51.910;8.352;2023-09-12T00:27:38;100462.22;;;21.01;97.56
21129;BME280;10722;51.910;8.352;2023-09-12T00:30:23;100470.88;;;20.75;98.05
21129;BME280;10722;51.910;8.352;2023-09-12T00:33:08;100482.56;;;20.64;99.23
21129;BME280;10722;51.910;8.352;2023-09-12T00:35:53;100479.41;;;20.84;99.44
21129;BME280;10722;51.910;8.352;2023-09-12T00:38:38;100480.16;;;20.87;98.78
21129;BME280;10722;51.910;8.352;2023-09-12T00:41:23;100488.69;;;20.64;99.53
21129;BME280;10722;51.910;8.352;2023-09-12T00:44:09;100495.97;;;20.86;99.40
21129;BME280;10722;51.910;8.352;2023-09-12T00:46:55;100494.81;;;20.96;99.13
21129;BME280;10722;51.910;8.352;2023-09-12T00:49:40;100530.41;;;21.08;98.21
21129;BME280;10722;51.910;8.352;2023-09-12T00:52:26;100506.09;;;20.99;97.22
21129;BME280;10722;51.910;8.352;2023-09-12T00:55:12;100485.16;;;20.96;96.60
21129;BME280;10722;51.910;8.352;2023-09-12T00:57:58;100515.88;;;20.94;97.02
21129;BME280;10722;51.910;8.352;2023-09-12T01:00:43;100516.91;;;20.89;97.98
21129;BME280;10722;51.910;8.352;2023-09-12T01:03:29;100509.94;;;20.88;98.26
21129;BME280;10722;51.910;8.352;2023-09-12T01:06:14;100511.41;;;20.67;98.59
21129;BME280;10722;51.910;8.352;2023-09-12T01:09:02;100504.31;;;20.69;99.75
21129;BME280;10722;51.910;8.352;2023-09-12T01:11:47;100499.03;;;20.70;99.57
21129;BME280;10722;51.910;8.352;2023-09-12T01:14:32;100502.97;;;20.55;99.90
21129;BME280;10722;51.910;8.352;2023-09-12T01:17:17;100504.28;;;20.70;99.53
21129;BME280;10722;51.910;8.352;2023-09-12T01:20:05;100507.09;;;20.64;98.98
21129;BME280;10722;51.910;8.352;2023-09-12T01:23:00;100487.50;;;20.76;97.92
21129;BME280;10722;51.910;8.352;2023-09-12T01:25:55;100495.09;;;20.52;99.67
21129;BME280;10722;51.910;8.352;2023-09-12T01:28:46;100507.75;;;20.38;100.00
21129;BME280;10722;51.910;8.352;2023-09-12T01:31:33;100524.88;;;20.19;100.00
21129;BME280;10722;51.910;8.352;2023-09-12T01:34:19;100527.81;;;20.06;100.00
21129;BME280;10722;51.910;8.352;2023-09-12T01:37:04;100539.34;;;20.01;100.00
21129;BME280;10722;51.910;8.352;2023-09-12T01:39:49;100542.06;;;19.96;100.00
21129;BME280;10722;51.910;8.352;2023-09-12T01:42:42;100544.13;;;19.83;100.00
21129;BME280;10722;51.910;8.352;2023-09-12T01:45:28;100550.22;;;19.85;100.00
21129;BME280;10722;51.910;8.352;2023-09-12T01:48:19;100540.28;;;19.98;100.00
21129;BME280;10722;51.910;8.352;2023-09-12T01:51:05;100549.16;;;19.94;100.00
21129;BME280;10722;51.910;8.352;2023-09-12T01:53:52;100548.69;;;19.75;100.00
21129;BME280;10722;51.910;8.352;2023-09-12T01:56:38;100545.91;;;19.83;100.00
21129;BME280;10722;51.910;8.352;2023-09-12T01:59:23;100544.06;;;19.86;100.00
21129;BME280;10722;51.910;8.352;2023-09-12T02:02:08;100549.22;;;19.91;100.00
21129;BME280;10722;51.910;8.352;2023-09-12T02:05:06;100555.34;;;19.90;100.00
21129;BME280;10722;51.910;8.352;2023-09-12T02:07:52;100573.03;;;19.82;100.00
21129;BME280;10722;51.910;8.352;2023-09-12T02:10:37;100589.56;;;19.87;100.00
21129;BME280;10722;51.910;8.352;2023-09-12T02:13:22;100627.13;;;19.89;100.00
21129;BME280;10722;51.910;8.352;2023-09-12T02:16:07;100673.91;;;19.72;100.00
21129;BME280;10722;51.910;8.352;2023-09-12T02:18:52;100682.75;;;19.64;100.00
21129;BME280;10722;51.910;8.352;2023-09-12T02:21:37;100665.97;;;19.75;100.00
21129;BME280;10722;51.910;8.352;2023-09-12T02:24:23;100666.59;;;19.84;100.00
21129;BME280;10722;51.910;8.352;2023-09-12T02:27:08;100658.66;;;19.87;100.00
21129;BME280;10722;51.910;8.352;2023-09-12T02:29:53;100645.22;;;20.03;100.00
21129;BME280;10722;51.910;8.352;2023-09-12T02:32:38;100627.53;;;20.09;100.00
21129;BME280;10722;51.910;8.352;2023-09-12T02:35:23;100603.91;;;20.09;100.00
21129;BME280;10722;51.910;8.352;2023-09-12T02:38:08;100564.50;;;20.09;100.00
21129;BME280;10722;51.910;8.352;2023-09-12T02:40:53;100537.47;;;20.06;100.00
21129;BME280;10722;51.910;8.352;2023-09-12T02:43:38;100496.22;;;20.09;100.00
21129;BME280;10722;51.910;8.352;2023-09-12T02:46:23;100470.97;;;20.05;100.00
21129;BME280;10722;51.910;8.352;2023-09-12T02:49:09;100456.91;;;20.08;100.00
21129;BME280;10722;51.910;8.352;2023-09-12T02:51:54;100449.97;;;20.05;100.00
21129;BME280;10722;51.910;8.352;2023-09-12T02:54:39;100445.19;;;20.20;100.00
21129;BME280;10722;51.910;8.352;2023-09-12T02:57:23;100423.25;;;20.22;100.00
21129;BME280;10722;51.910;8.352;2023-09-12T03:00:08;100424.13;;;20.21;100.00
21129;BME280;10722;51.910;8.352;2023-09-12T03:02:54;100423.41;;;20.16;100.00
21129;BME280;10722;51.910;8.352;2023-09-12T03:05:39;100428.63;;;20.18;100.00
21129;BME280;10722;51.910;8.352;2023-09-12T03:08:24;100444.69;;;20.38;100.00
21129;BME280;10722;51.910;8.352;2023-09-12T03:11:10;100447.13;;;20.46;100.00
21129;BME280;10722;51.910;8.352;2023-09-12T03:13:55;100447.78;;;20.55;100.00
21129;BME280;10722;51.910;8.352;2023-09-12T03:16:40;100447.78;;;20.55;100.00
21129;BME280;10722;51.910;8.352;2023-09-12T03:19:25;100460.94;;;20.52;100.00
21129;BME280;10722;51.910;8.352;2023-09-12T03:22:10;100470.97;;;20.38;100.00
21129;BME280;10722;51.910;8.352;2023-09-12T03:24:55;100485.00;;;20.37;100.00
21129;BME280;10722;51.910;8.352;2023-09-12T03:27:40;100458.31;;;20.54;100.00
21129;BME280;10722;51.910;8.352;2023-09-12T03:30:25;100461.78;;;20.56;100.00
21129;BME280;10722;51.910;8.352;2023-09-12T03:33:10;100518.88;;;20.48;100.00
21129;BME280;10722;51.910;8.352;2023-09-12T03:35:55;100563.91;;;20.34;100.00
21129;BME280;10722;51.910;8.352;2023-09-12T03:38:40;100577.97;;;20.31;100.00
21129;BME280;10722;51.910;8.352;2023-09-12T03:41:26;100591.19;;;20.28;100.00
21129;BME280;10722;51.910;8.352;2023-09-12T03:44:11;100574.50;;;20.31;100.00
21129;BME280;10722;51.910;8.352;2023-09-12T03:46:56;100544.78;;;20.29;100.00
21129;BME280;10722;51.910;8.352;2023-09-12T03:49:41;100519.28;;;20.32;99.13
21129;BME280;10722;51.910;8.352;2023-09-12T03:52:26;100492.91;;;20.37;98.14
21129;BME280;10722;51.910;8.352;2023-09-12T03:55:11;100479.75;;;20.37;97.40
21129;BME280;10722;51.910;8.352;2023-09-12T03:57:56;100469.44;;;20.29;97.26
21129;BME280;10722;51.910;8.352;2023-09-12T04:00:41;100453.75;;;20.28;96.22
21129;BME280;10722;51.910;8.352;2023-09-12T04:03:26;100447.63;;;20.27;95.66
21129;BME280;10722;51.910;8.352;2023-09-12T04:06:12;100424.84;;;20.28;93.43
21129;BME280;10722;51.910;8.352;2023-09-12T04:08:57;100424.56;;;20.38;93.01
21129;BME280;10722;51.910;8.352;2023-09-12T04:11:41;100436.97;;;20.32;92.41
21129;BME280;10722;51.910;8.352;2023-09-12T04:14:31;100475.44;;;20.34;93.01
21129;BME280;10722;51.910;8.352;2023-09-12T04:17:16;100510.28;;;20.41;93.34
21129;BME280;10722;51.910;8.352;2023-09-12T04:20:01;100493.59;;;20.09;93.28
21129;BME280;10722;51.910;8.352;2023-09-12T04:22:46;100513.50;;;20.18;94.07
21129;BME280;10722;51.910;8.352;2023-09-12T04:25:31;100510.91;;;20.18;94.04
21129;BME280;10722;51.910;8.352;2023-09-12T04:28:16;100503.50;;;20.32;93.04
21129;BME280;10722;51.910;8.352;2023-09-12T04:31:04;100510.50;;;20.33;92.56
21129;BME280;10722;51.910;8.352;2023-09-12T04:33:53;100525.19;;;20.08;93.35
21129;BME280;10722;51.910;8.352;2023-09-12T04:36:38;100560.44;;;19.96;96.27
21129;BME280;10722;51.910;8.352;2023-09-12T04:39:23;100542.13;;;19.95;97.97
21129;BME280;10722;51.910;8.352;2023-09-12T04:42:08;100558.28;;;19.78;100.00
21129;BME280;10722;51.910;8.352;2023-09-12T04:44:53;100578.19;;;19.86;100.00
21129;BME280;10722;51.910;8.352;2023-09-12T04:47:38;100597.97;;;19.61;100.00
21129;BME280;10722;51.910;8.352;2023-09-12T04:50:23;100563.59;;;19.33;100.00
21129;BME280;10722;51.910;8.352;2023-09-12T04:53:09;100570.63;;;19.31;100.00
21129;BME280;10722;51.910;8.352;2023-09-12T04:55:54;100565.50;;;19.26;100.00
21129;BME280;10722;51.910;8.352;2023-09-12T04:58:39;100548.22;;;19.16;100.00
21129;BME280;10722;51.910;8.352;2023-09-12T05:01:24;100518.88;;;18.97;100.00
21129;BME280;10722;51.910;8.352;2023-09-12T05:04:09;100528.53;;;18.95;100.00
21129;BME280;10722;51.910;8.352;2023-09-12T05:06:55;100537.63;;;18.77;100.00
21129;BME280;10722;51.910;8.352;2023-09-12T05:09:39;100565.47;;;18.83;100.00
21129;BME280;10722;51.910;8.352;2023-09-12T05:12:24;100558.63;;;18.72;100.00
21129;BME280;10722;51.910;8.352;2023-09-12T05:15:09;100557.81;;;18.70;100.00
21129;BME280;10722;51.910;8.352;2023-09-12T05:17:54;100554.44;;;18.64;100.00
21129;BME280;10722;51.910;8.352;2023-09-12T05:20:40;100557.88;;;18.67;100.00
21129;BME280;10722;51.910;8.352;2023-09-12T05:23:25;100553.41;;;18.74;100.00
21129;BME280;10722;51.910;8.352;2023-09-12T05:26:10;100527.22;;;18.71;100.00
21129;BME280;10722;51.910;8.352;2023-09-12T05:28:54;100515.91;;;18.69;100.00
21129;BME280;10722;51.910;8.352;2023-09-12T05:31:39;100534.19;;;18.73;100.00
21129;BME280;10722;51.910;8.352;2023-09-12T05:34:25;100552.31;;;18.86;100.00
21129;BME280;10722;51.910;8.352;2023-09-12T05:37:10;100562.78;;;18.86;100.00
21129;BME280;10722;51.910;8.352;2023-09-12T05:39:54;100570.59;;;18.89;100.00
21129;BME280;10722;51.910;8.352;2023-09-12T05:42:39;100560.09;;;18.89;100.00
21129;BME280;10722;51.910;8.352;2023-09-12T05:45:24;100534.19;;;18.73;100.00
21129;BME280;10722;51.910;8.352;2023-09-12T05:48:09;100482.81;;;18.65;100.00
21129;BME280;10722;51.910;8.352;2023-09-12T05:50:54;100466.31;;;18.58;100.00
21129;BME280;10722;51.910;8.352;2023-09-12T05:53:39;100467.94;;;18.65;100.00
21129;BME280;10722;51.910;8.352;2023-09-12T05:56:24;100496.16;;;18.51;100.00
21129;BME280;10722;51.910;8.352;2023-09-12T05:59:10;100511.28;;;18.36;100.00
21129;BME280;10722;51.910;8.352;2023-09-12T06:01:55;100557.06;;;18.64;100.00
21129;BME280;10722;51.910;8.352;2023-09-12T06:04:39;100531.16;;;18.47;100.00
21129;BME280;10722;51.910;8.352;2023-09-12T06:07:25;100522.31;;;18.54;100.00
21129;BME280;10722;51.910;8.352;2023-09-12T06:10:10;100537.25;;;18.49;100.00
21129;BME280;10722;51.910;8.352;2023-09-12T06:12:55;100530.94;;;18.59;100.00
21129;BME280;10722;51.910;8.352;2023-09-12T06:15:40;100497.22;;;18.41;100.00
21129;BME280;10722;51.910;8.352;2023-09-12T06:18:25;100463.91;;;18.49;100.00
21129;BME280;10722;51.910;8.352;2023-09-12T06:21:10;100460.34;;;18.51;100.00
21129;BME280;10722;51.910;8.352;2023-09-12T06:24:14;100490.09;;;18.49;100.00
21129;BME280;10722;51.910;8.352;2023-09-12T06:26:59;100487.59;;;18.41;100.00
21129;BME280;10722;51.910;8.352;2023-09-12T06:29:45;100494.22;;;18.60;100.00
21129;BME280;10722;51.910;8.352;2023-09-12T06:32:30;100500.38;;;18.59;100.00
21129;BME280;10722;51.910;8.352;2023-09-12T06:35:15;100485.56;;;18.58;100.00
21129;BME280;10722;51.910;8.352;2023-09-12T06:38:00;100507.44;;;18.54;100.00
21129;BME280;10722;51.910;8.352;2023-09-12T06:40:45;100520.97;;;18.31;100.00
21129;BME280;10722;51.910;8.352;2023-09-12T06:43:30;100556.75;;;17.75;100.00
21129;BME280;10722;51.910;8.352;2023-09-12T06:46:15;100572.69;;;17.57;100.00
21129;BME280;10722;51.910;8.352;2023-09-12T06:49:00;100567.41;;;17.63;100.00
21129;BME280;10722;51.910;8.352;2023-09-12T06:51:45;100552.41;;;17.74;100.00
21129;BME280;10722;51.910;8.352;2023-09-12T06:54:34;100544.34;;;17.89;100.00
21129;BME280;10722;51.910;8.352;2023-09-12T06:57:20;100547.75;;;17.95;100.00
21129;BME280;10722;51.910;8.352;2023-09-12T07:00:05;100560.69;;;18.05;100.00
21129;BME280;10722;51.910;8.352;2023-09-12T07:02:50;100590.28;;;18.07;100.00
21129;BME280;10722;51.910;8.352;2023-09-12T07:05:36;100610.22;;;18.19;100.00
21129;BME280;10722;51.910;8.352;2023-09-12T07:08:21;100627.59;;;18.25;100.00
21129;BME280;10722;51.910;8.352;2023-09-12T07:11:06;100613.59;;;18.24;100.00
21129;BME280;10722;51.910;8.352;2023-09-12T07:13:51;100613.69;;;18.18;100.00
21129;BME280;10722;51.910;8.352;2023-09-12T07:16:37;100615.44;;;18.19;100.00
21129;BME280;10722;51.910;8.352;2023-09-12T07:19:23;100614.41;;;18.29;100.00
21129;BME280;10722;51.910;8.352;2023-09-12T07:22:07;100589.91;;;18.32;100.00
21129;BME280;10722;51.910;8.352;2023-09-12T07:24:52;100595.28;;;18.24;100.00
21129;BME280;10722;51.910;8.352;2023-09-12T07:27:37;100604.44;;;17.97;100.00
21129;BME280;10722;51.910;8.352;2023-09-12T07:30:22;100601.72;;;18.02;100.00
21129;BME280;10722;51.910;8.352;2023-09-12T07:33:07;100609.25;;;18.23;100.00
21129;BME280;10722;51.910;8.352;2023-09-12T07:35:52;100600.59;;;18.18;100.00
21129;BME280;10722;51.910;8.352;2023-09-12T07:38:37;100606.06;;;18.04;100.00
21129;BME280;10722;51.910;8.352;2023-09-12T07:41:22;100613.69;;;18.18;100.00
21129;BME280;10722;51.910;8.352;2023-09-12T07:44:07;100606.72;;;18.19;100.00
21129;BME280;10722;51.910;8.352;2023-09-12T07:46:52;100596.31;;;18.14;100.00
21129;BME280;10722;51.910;8.352;2023-09-12T07:49:36;100580.41;;;18.26;100.00
21129;BME280;10722;51.910;8.352;2023-09-12T07:52:22;100590.66;;;18.40;100.00
21129;BME280;10722;51.910;8.352;2023-09-12T07:55:08;100621.41;;;18.29;100.00
21129;BME280;10722;51.910;8.352;2023-09-12T07:57:53;100611.22;;;18.10;100.00
21129;BME280;10722;51.910;8.352;2023-09-12T08:00:38;100635.59;;;18.14;100.00
21129;BME280;10722;51.910;8.352;2023-09-12T08:03:23;100676.19;;;17.78;100.00
21129;BME280;10722;51.910;8.352;2023-09-12T08:06:09;100701.63;;;17.65;100.00
21129;BME280;10722;51.910;8.352;2023-09-12T08:08:54;100713.91;;;17.61;100.00
21129;BME280;10722;51.910;8.352;2023-09-12T08:11:39;100683.31;;;17.65;100.00
21129;BME280;10722;51.910;8.352;2023-09-12T08:14:23;100704.16;;;17.74;100.00
21129;BME280;10722;51.910;8.352;2023-09-12T08:17:08;100738.09;;;17.83;100.00
21129;BME280;10722;51.910;8.352;2023-09-12T08:19:54;100729.44;;;17.75;100.00
21129;BME280;10722;51.910;8.352;2023-09-12T08:22:39;100738.06;;;17.86;100.00
21129;BME280;10722;51.910;8.352;2023-09-12T08:25:23;100747.63;;;17.87;100.00
21129;BME280;10722;51.910;8.352;2023-09-12T08:28:08;100731.97;;;17.84;100.00
21129;BME280;10722;51.910;8.352;2023-09-12T08:30:54;100705.78;;;17.86;100.00
21129;BME280;10722;51.910;8.352;2023-09-12T08:33:38;100746.06;;;17.68;100.00
21129;BME280;10722;51.910;8.352;2023-09-12T08:36:23;100735.75;;;17.57;100.00
21129;BME280;10722;51.910;8.352;2023-09-12T08:39:13;100732.03;;;17.77;100.00
21129;BME280;10722;51.910;8.352;2023-09-12T08:41:59;100738.19;;;17.73;100.00
21129;BME280;10722;51.910;8.352;2023-09-12T08:44:45;100739.84;;;17.83;100.00
21129;BME280;10722;51.910;8.352;2023-09-12T08:47:31;100748.44;;;17.92;100.00
21129;BME280;10722;51.910;8.352;2023-09-12T08:50:20;100750.19;;;17.90;100.00
21129;BME280;10722;51.910;8.352;2023-09-12T08:53:05;100723.94;;;17.98;100.00
21129;BME280;10722;51.910;8.352;2023-09-12T08:55:53;100710.84;;;18.00;100.00
21129;BME280;10722;51.910;8.352;2023-09-12T08:58:39;100697.72;;;18.03;100.00
21129;BME280;10722;51.910;8.352;2023-09-12T09:01:24;100698.47;;;18.11;100.00
21129;BME280;10722;51.910;8.352;2023-09-12T09:04:10;100707.09;;;18.18;100.00
21129;BME280;10722;51.910;8.352;2023-09-12T09:06:56;100720.97;;;18.26;100.00
21129;BME280;10722;51.910;8.352;2023-09-12T09:09:42;100740.19;;;18.23;100.00
21129;BME280;10722;51.910;8.352;2023-09-12T09:12:28;100757.56;;;18.30;100.00
21129;BME280;10722;51.910;8.352;2023-09-12T09:15:26;100749.72;;;18.30;100.00
21129;BME280;10722;51.910;8.352;2023-09-12T09:18:11;100730.56;;;18.24;100.00
21129;BME280;10722;51.910;8.352;2023-09-12T09:20:57;100718.47;;;18.15;100.00
21129;BME280;10722;51.910;8.352;2023-09-12T09:23:46;100735.00;;;18.20;100.00
21129;BME280;10722;51.910;8.352;2023-09-12T09:26:45;100725.47;;;18.16;100.00
21129;BME280;10722;51.910;8.352;2023-09-12T09:29:30;100658.13;;;18.24;100.00
21129;BME280;10722;51.910;8.352;2023-09-12T09:32:19;100675.50;;;18.30;100.00
21129;BME280;10722;51.910;8.352;2023-09-12T09:35:04;100685.06;;;18.32;100.00
21129;BME280;10722;51.910;8.352;2023-09-12T09:37:50;100671.00;;;18.38;100.00
21129;BME280;10722;51.910;8.352;2023-09-12T09:40:36;100669.25;;;18.38;100.00
21129;BME280;10722;51.910;8.352;2023-09-12T09:43:21;100666.50;;;18.46;100.00
21129;BME280;10722;51.910;8.352;2023-09-12T09:46:06;100696.13;;;18.51;100.00
21129;BME280;10722;51.910;8.352;2023-09-12T09:48:52;100703.19;;;18.48;100.00
21129;BME280;10722;51.910;8.352;2023-09-12T09:51:41;100724.94;;;18.53;100.00
21129;BME280;10722;51.910;8.352;2023-09-12T09:54:26;100772.66;;;18.10;100.00
21129;BME280;10722;51.910;8.352;2023-09-12T09:57:11;100751.69;;;18.10;100.00
21129;BME280;10722;51.910;8.352;2023-09-12T09:59:56;100710.53;;;18.23;100.00
21129;BME280;10722;51.910;8.352;2023-09-12T10:02:42;100676.53;;;18.20;100.00
21129;BME280;10722;51.910;8.352;2023-09-12T10:05:28;100696.63;;;18.18;100.00
21129;BME280;10722;51.910;8.352;2023-09-12T10:08:13;100700.16;;;18.17;100.00
21129;BME280;10722;51.910;8.352;2023-09-12T10:10:59;100721.91;;;18.20;100.00
21129;BME280;10722;51.910;8.352;2023-09-12T10:13:52;100737.75;;;18.11;100.00
21129;BME280;10722;51.910;8.352;2023-09-12T10:16:45;100737.66;;;18.17;100.00
21129;BME280;10722;51.910;8.352;2023-09-12T10:19:51;100709.66;;;18.22;100.00
21129;BME280;10722;51.910;8.352;2023-09-12T10:22:40;100721.91;;;18.20;100.00
21129;BME280;10722;51.910;8.352;2023-09-12T10:25:28;100724.56;;;18.15;100.00
21129;BME280;10722;51.910;8.352;2023-09-12T10:28:14;100720.09;;;18.24;100.00
21129;BME280;10722;51.910;8.352;2023-09-12T10:31:01;100706.84;;;18.34;100.00
21129;BME280;10722;51.910;8.352;2023-09-12T10:33:46;100710.19;;;18.44;100.00
21129;BME280;10722;51.910;8.352;2023-09-12T10:36:32;100701.47;;;18.45;100.00
21129;BME280;10722;51.910;8.352;2023-09-12T10:39:19;100694.47;;;18.47;100.00
21129;BME280;10722;51.910;8.352;2023-09-12T10:42:04;100707.50;;;18.50;100.00
21129;BME280;10722;51.910;8.352;2023-09-12T10:44:50;100704.84;;;18.53;100.00
21129;BME280;10722;51.910;8.352;2023-09-12T10:47:37;100697.84;;;18.54;100.00
21129;BME280;10722;51.910;8.352;2023-09-12T10:50:22;100689.97;;;18.54;100.00
21129;BME280;10722;51.910;8.352;2023-09-12T10:53:13;100679.38;;;18.60;100.00
21129;BME280;10722;51.910;8.352;2023-09-12T10:56:01;100681.78;;;18.72;100.00
21129;BME280;10722;51.910;8.352;2023-09-12T11:01:47;100680.56;;;18.95;100.00
21129;BME280;10722;51.910;8.352;2023-09-12T11:04:33;100675.19;;;19.04;100.00
21129;BME280;10722;51.910;8.352;2023-09-12T11:10:23;100677.75;;;19.07;100.00
21129;BME280;10722;51.910;8.352;2023-09-12T11:13:17;100678.63;;;19.06;100.00
21129;BME280;10722;51.910;8.352;2023-09-12T11:16:16;100675.72;;;19.21;100.00
21129;BME280;10722;51.910;8.352;2023-09-12T11:19:20;100669.31;;;19.36;100.00
21129;BME280;10722;51.910;8.352;2023-09-12T11:22:27;100669.06;;;19.50;100.00
21129;BME280;10722;51.910;8.352;2023-09-12T11:25:19;100663.47;;;19.68;100.00
21129;BME280;10722;51.910;8.352;2023-09-12T11:28:04;100656.13;;;19.84;100.00
21129;BME280;10722;51.910;8.352;2023-09-12T11:30:56;100637.25;;;20.06;100.00
21129;BME280;10722;51.910;8.352;2023-09-12T11:33:42;100623.22;;;20.07;100.00
21129;BME280;10722;51.910;8.352;2023-09-12T11:36:28;100615.78;;;20.26;100.00
21129;BME280;10722;51.910;8.352;2023-09-12T11:39:31;100604.28;;;20.30;100.00
21129;BME280;10722;51.910;8.352;2023-09-12T11:42:17;100608.56;;;20.34;100.00
21129;BME280;10722;51.910;8.352;2023-09-12T11:45:07;100602.81;;;20.55;100.00
21129;BME280;10722;51.910;8.352;2023-09-12T11:47:53;100610.28;;;20.72;100.00
21129;BME280;10722;51.910;8.352;2023-09-12T11:50:39;100592.72;;;20.73;100.00
21129;BME280;10722;51.910;8.352;2023-09-12T11:53:27;100593.81;;;20.97;100.00
21129;BME280;10722;51.910;8.352;2023-09-12T11:56:12;100587.53;;;21.02;100.00
21129;BME280;10722;51.910;8.352;2023-09-12T11:58:58;100591.66;;;21.11;100.00
21129;BME280;10722;51.910;8.352;2023-09-12T12:01:43;100585.94;;;21.28;100.00
21129;BME280;10722;51.910;8.352;2023-09-12T12:04:28;100581.66;;;21.55;100.00
21129;BME280;10722;51.910;8.352;2023-09-12T12:07:13;100559.06;;;21.48;100.00
21129;BME280;10722;51.910;8.352;2023-09-12T12:09:59;100553.47;;;21.59;100.00
21129;BME280;10722;51.910;8.352;2023-09-12T12:12:45;100568.94;;;21.98;100.00
21129;BME280;10722;51.910;8.352;2023-09-12T12:15:30;100567.25;;;22.23;100.00
21129;BME280;10722;51.910;8.352;2023-09-12T12:18:15;100556.66;;;22.25;100.00
21129;BME280;10722;51.910;8.352;2023-09-12T12:21:01;100544.19;;;22.55;100.00
21129;BME280;10722;51.910;8.352;2023-09-12T12:23:46;100526.66;;;22.54;100.00
21129;BME280;10722;51.910;8.352;2023-09-12T12:26:31;100542.25;;;22.35;100.00
21129;BME280;10722;51.910;8.352;2023-09-12T12:29:15;100554.84;;;22.52;100.00
21129;BME280;10722;51.910;8.352;2023-09-12T12:32:01;100562.72;;;22.78;100.00
21129;BME280;10722;51.910;8.352;2023-09-12T12:34:48;100534.03;;;22.69;100.00
21129;BME280;10722;51.910;8.352;2023-09-12T12:37:55;100489.75;;;23.26;97.18
21129;BME280;10722;51.910;8.352;2023-09-12T12:40:50;100506.91;;;22.41;97.69
21129;BME280;10722;51.910;8.352;2023-09-12T12:43:35;100535.78;;;22.44;99.06
21129;BME280;10722;51.910;8.352;2023-09-12T12:46:21;100536.56;;;22.72;99.81
21129;BME280;10722;51.910;8.352;2023-09-12T12:49:06;100496.84;;;22.77;95.79
21129;BME280;10722;51.910;8.352;2023-09-12T12:51:52;100484.38;;;22.80;95.06
21129;BME280;10722;51.910;8.352;2023-09-12T12:54:38;100483.94;;;23.40;94.37
21129;BME280;10722;51.910;8.352;2023-09-12T12:57:23;100500.56;;;23.64;95.30
21129;BME280;10722;51.910;8.352;2023-09-12T13:00:13;100463.63;;;24.27;90.82
21129;BME280;10722;51.910;8.352;2023-09-12T13:02:59;100437.69;;;24.76;88.26
21129;BME280;10722;51.910;8.352;2023-09-12T13:05:43;100430.31;;;24.82;87.14
21129;BME280;10722;51.910;8.352;2023-09-12T13:08:28;100468.47;;;24.77;88.24
21129;BME280;10722;51.910;8.352;2023-09-12T13:11:14;100474.47;;;24.62;88.78
21129;BME280;10722;51.910;8.352;2023-09-12T13:14:03;100458.16;;;24.31;87.31
21129;BME280;10722;51.910;8.352;2023-09-12T13:16:48;100449.81;;;24.00;87.31
21129;BME280;10722;51.910;8.352;2023-09-12T13:19:34;100475.09;;;24.48;87.68
21129;BME280;10722;51.910;8.352;2023-09-12T13:22:18;100448.03;;;24.00;86.65
21129;BME280;10722;51.910;8.352;2023-09-12T13:25:05;100481.31;;;24.04;88.43
21129;BME280;10722;51.910;8.352;2023-09-12T13:27:50;100464.28;;;23.91;87.16
21129;BME280;10722;51.910;8.352;2023-09-12T13:30:35;100482.00;;;24.09;88.28
21129;BME280;10722;51.910;8.352;2023-09-12T13:33:20;100436.88;;;23.93;85.61
21129;BME280;10722;51.910;8.352;2023-09-12T13:36:05;100483.41;;;23.96;88.09
21129;BME280;10722;51.910;8.352;2023-09-12T13:38:50;100458.13;;;23.90;87.19
21129;BME280;10722;51.910;8.352;2023-09-12T13:41:35;100463.31;;;23.71;87.87
21129;BME280;10722;51.910;8.352;2023-09-12T13:44:20;100500.25;;;23.49;89.97
21129;BME280;10722;51.910;8.352;2023-09-12T13:47:05;100515.63;;;23.40;91.64
21129;BME280;10722;51.910;8.352;2023-09-12T13:49:50;100499.16;;;23.55;91.64
21129;BME280;10722;51.910;8.352;2023-09-12T13:52:35;100494.50;;;23.40;91.61
21129;BME280;10722;51.910;8.352;2023-09-12T13:55:20;100481.16;;;23.65;90.18
21129;BME280;10722;51.910;8.352;2023-09-12T13:58:25;100455.09;;;23.57;88.66
21129;BME280;10722;51.910;8.352;2023-09-12T14:01:20;100458.16;;;23.46;88.63
21129;BME280;10722;51.910;8.352;2023-09-12T14:04:17;100486.38;;;23.44;90.43
21129;BME280;10722;51.910;8.352;2023-09-12T14:07:03;100483.88;;;23.63;91.17
21129;BME280;10722;51.910;8.352;2023-09-12T14:09:48;100497.97;;;23.62;92.05
21129;BME280;10722;51.910;8.352;2023-09-12T14:12:34;100478.22;;;23.50;91.34
21129;BME280;10722;51.910;8.352;2023-09-12T14:15:19;100481.78;;;23.49;92.01
21129;BME280;10722;51.910;8.352;2023-09-12T14:18:04;100489.44;;;23.34;93.54
21129;BME280;10722;51.910;8.352;2023-09-12T14:20:50;100507.59;;;23.19;95.27
21129;BME280;10722;51.910;8.352;2023-09-12T14:23:37;100497.78;;;23.45;95.30
21129;BME280;10722;51.910;8.352;2023-09-12T14:26:22;100466.19;;;23.43;92.29